sensor_id;sensor_type;location;lat;lon;timestamp;pressure;altitude;pressure_sealevel;temperature;humidity
82178;BME280;71761;21.336;-157.724;2023-08-06T00:02:12;101225.17;;;33.17;37.65
82178;BME280;71761;21.336;-157.724;2023-08-06T00:04:37;101224.21;;;33.08;37.90
82178;BME280;71761;21.336;-157.724;2023-08-06T00:07:02;101230.47;;;33.12;37.90
82178;BME280;71761;21.336;-157.724;2023-08-06T00:09:28;101226.84;;;33.35;37.49
82178;BME280;71761;21.336;-157.724;2023-08-06T00:11:53;101224.67;;;33.56;37.04
82178;BME280;71761;21.336;-157.724;2023-08-06T00:14:18;101218.67;;;33.36;37.00
82178;BME280;71761;21.336;-157.724;2023-08-06T00:16:44;101220.66;;;33.39;37.29
82178;BME280;71761;21.336;-157.724;2023-08-06T00:19:09;101224.04;;;33.16;37.42
82178;BME280;71761;21.336;-157.724;2023-08-06T00:21:34;101220.51;;;33.56;37.06
82178;BME280;71761;21.336;-157.724;2023-08-06T00:24:00;101217.03;;;33.51;37.16
82178;BME280;71761;21.336;-157.724;2023-08-06T00:26:25;101216.51;;;33.71;36.83
82178;BME280;71761;21.336;-157.724;2023-08-06T00:28:50;101211.34;;;33.73;36.81
82178;BME280;71761;21.336;-157.724;2023-08-06T00:31:16;101210.04;;;33.64;37.12
82178;BME280;71761;21.336;-157.724;2023-08-06T00:33:41;101210.51;;;33.73;37.02
82178;BME280;71761;21.336;-157.724;2023-08-06T00:36:07;101208.82;;;33.54;37.15
82178;BME280;71761;21.336;-157.724;2023-08-06T00:38:32;101202.15;;;33.82;36.78
82178;BME280;71761;21.336;-157.724;2023-08-06T00:40:58;101203.15;;;33.81;36.67
82178;BME280;71761;21.336;-157.724;2023-08-06T00:43:23;101204.01;;;32.72;38.08
82178;BME280;71761;21.336;-157.724;2023-08-06T00:45:48;101203.61;;;32.84;37.41
82178;BME280;71761;21.336;-157.724;2023-08-06T00:48:14;101206.58;;;33.77;36.91
82178;BME280;71761;21.336;-157.724;2023-08-06T00:50:39;101207.53;;;33.33;36.86
82178;BME280;71761;21.336;-157.724;2023-08-06T00:53:11;101205.33;;;33.80;36.13
82178;BME280;71761;21.336;-157.724;2023-08-06T00:55:30;101202.58;;;33.82;35.78
82178;BME280;71761;21.336;-157.724;2023-08-06T00:57:56;101201.60;;;32.50;36.56
82178;BME280;71761;21.336;-157.724;2023-08-06T01:00:22;101203.03;;;33.21;36.62
82178;BME280;71761;21.336;-157.724;2023-08-06T01:05:12;101195.96;;;31.88;37.22
82178;BME280;71761;21.336;-157.724;2023-08-06T01:07:45;101195.23;;;32.31;37.38
82178;BME280;71761;21.336;-157.724;2023-08-06T01:12:34;101194.80;;;33.84;35.44
82178;BME280;71761;21.336;-157.724;2023-08-06T01:15:00;101194.79;;;33.86;35.35
82178;BME280;71761;21.336;-157.724;2023-08-06T01:17:18;101196.16;;;34.02;35.38
82178;BME280;71761;21.336;-157.724;2023-08-06T01:19:44;101195.35;;;33.74;35.73
82178;BME280;71761;21.336;-157.724;2023-08-06T01:22:09;101196.84;;;34.10;35.73
82178;BME280;71761;21.336;-157.724;2023-08-06T01:24:34;101197.15;;;33.72;36.19
82178;BME280;71761;21.336;-157.724;2023-08-06T01:27:06;101192.19;;;34.15;35.45
82178;BME280;71761;21.336;-157.724;2023-08-06T01:29:31;101188.31;;;33.83;36.04
82178;BME280;71761;21.336;-157.724;2023-08-06T01:31:52;101183.76;;;33.66;36.25
82178;BME280;71761;21.336;-157.724;2023-08-06T01:34:20;101182.18;;;33.85;36.34
82178;BME280;71761;21.336;-157.724;2023-08-06T01:36:42;101177.30;;;33.99;36.09
82178;BME280;71761;21.336;-157.724;2023-08-06T01:39:07;101172.49;;;34.34;35.64
82178;BME280;71761;21.336;-157.724;2023-08-06T01:41:32;101176.07;;;34.44;35.42
82178;BME280;71761;21.336;-157.724;2023-08-06T01:46:23;101170.95;;;33.62;35.44
82178;BME280;71761;21.336;-157.724;2023-08-06T01:48:49;101173.05;;;33.99;35.76
82178;BME280;71761;21.336;-157.724;2023-08-06T01:51:15;101166.94;;;34.62;35.54
82178;BME280;71761;21.336;-157.724;2023-08-06T01:53:39;101165.12;;;34.57;35.52
82178;BME280;71761;21.336;-157.724;2023-08-06T01:56:05;101162.11;;;34.22;35.57
82178;BME280;71761;21.336;-157.724;2023-08-06T01:58:30;101161.82;;;34.60;35.48
82178;BME280;71761;21.336;-157.724;2023-08-06T02:00:55;101161.24;;;34.51;35.79
82178;BME280;71761;21.336;-157.724;2023-08-06T02:03:21;101165.60;;;34.01;36.12
82178;BME280;71761;21.336;-157.724;2023-08-06T02:05:46;101167.82;;;34.15;36.36
82178;BME280;71761;21.336;-157.724;2023-08-06T02:08:12;101165.65;;;34.18;36.46
82178;BME280;71761;21.336;-157.724;2023-08-06T02:10:37;101169.21;;;33.99;36.78
82178;BME280;71761;21.336;-157.724;2023-08-06T02:13:03;101167.44;;;32.43;37.84
82178;BME280;71761;21.336;-157.724;2023-08-06T02:15:28;101160.99;;;33.10;37.54
82178;BME280;71761;21.336;-157.724;2023-08-06T02:17:53;101157.04;;;33.56;37.66
82178;BME280;71761;21.336;-157.724;2023-08-06T02:20:19;101155.20;;;33.61;37.63
82178;BME280;71761;21.336;-157.724;2023-08-06T02:22:44;101149.47;;;33.44;37.36
82178;BME280;71761;21.336;-157.724;2023-08-06T02:25:10;101152.95;;;33.67;37.04
82178;BME280;71761;21.336;-157.724;2023-08-06T02:27:35;101152.07;;;33.68;36.98
82178;BME280;71761;21.336;-157.724;2023-08-06T02:30:01;101154.04;;;32.28;38.61
82178;BME280;71761;21.336;-157.724;2023-08-06T02:32:26;101153.44;;;33.25;37.10
82178;BME280;71761;21.336;-157.724;2023-08-06T02:34:51;101153.47;;;33.05;37.41
82178;BME280;71761;21.336;-157.724;2023-08-06T02:37:17;101154.47;;;33.50;37.01
82178;BME280;71761;21.336;-157.724;2023-08-06T02:39:42;101152.35;;;33.51;36.72
82178;BME280;71761;21.336;-157.724;2023-08-06T02:42:08;101150.48;;;33.32;36.76
82178;BME280;71761;21.336;-157.724;2023-08-06T02:44:33;101145.72;;;32.39;38.16
82178;BME280;71761;21.336;-157.724;2023-08-06T02:46:58;101151.19;;;33.19;37.55
82178;BME280;71761;21.336;-157.724;2023-08-06T02:49:24;101150.56;;;33.31;37.03
82178;BME280;71761;21.336;-157.724;2023-08-06T02:51:49;101146.06;;;33.04;37.36
82178;BME280;71761;21.336;-157.724;2023-08-06T02:54:15;101151.74;;;33.59;36.93
82178;BME280;71761;21.336;-157.724;2023-08-06T02:56:44;101147.72;;;32.68;37.71
82178;BME280;71761;21.336;-157.724;2023-08-06T02:59:05;101146.88;;;32.82;37.68
82178;BME280;71761;21.336;-157.724;2023-08-06T03:01:31;101146.85;;;33.32;36.92
82178;BME280;71761;21.336;-157.724;2023-08-06T03:03:56;101144.34;;;33.18;36.97
82178;BME280;71761;21.336;-157.724;2023-08-06T03:06:21;101145.37;;;33.55;36.94
82178;BME280;71761;21.336;-157.724;2023-08-06T03:08:47;101141.00;;;32.00;38.09
82178;BME280;71761;21.336;-157.724;2023-08-06T03:11:12;101139.75;;;32.41;38.54
82178;BME280;71761;21.336;-157.724;2023-08-06T03:13:37;101139.15;;;32.68;38.04
82178;BME280;71761;21.336;-157.724;2023-08-06T03:16:03;101141.19;;;32.69;38.34
82178;BME280;71761;21.336;-157.724;2023-08-06T03:18:29;101146.26;;;32.27;39.05
82178;BME280;71761;21.336;-157.724;2023-08-06T03:20:54;101147.44;;;32.00;38.55
82178;BME280;71761;21.336;-157.724;2023-08-06T03:23:19;101151.71;;;33.08;38.03
82178;BME280;71761;21.336;-157.724;2023-08-06T03:25:44;101153.71;;;32.69;37.63
82178;BME280;71761;21.336;-157.724;2023-08-06T03:28:11;101156.10;;;32.77;37.87
82178;BME280;71761;21.336;-157.724;2023-08-06T03:30:35;101155.67;;;32.90;37.29
82178;BME280;71761;21.336;-157.724;2023-08-06T03:33:00;101157.30;;;32.81;37.21
82178;BME280;71761;21.336;-157.724;2023-08-06T03:35:26;101156.71;;;32.92;37.14
82178;BME280;71761;21.336;-157.724;2023-08-06T03:37:51;101159.89;;;33.08;36.91
82178;BME280;71761;21.336;-157.724;2023-08-06T03:40:17;101160.86;;;33.07;36.85
82178;BME280;71761;21.336;-157.724;2023-08-06T03:42:42;101162.36;;;33.45;36.66
82178;BME280;71761;21.336;-157.724;2023-08-06T03:45:08;101162.58;;;32.92;36.98
82178;BME280;71761;21.336;-157.724;2023-08-06T03:47:33;101164.38;;;32.94;37.35
82178;BME280;71761;21.336;-157.724;2023-08-06T03:49:58;101168.71;;;32.86;37.52
82178;BME280;71761;21.336;-157.724;2023-08-06T03:52:24;101167.75;;;31.78;38.86
82178;BME280;71761;21.336;-157.724;2023-08-06T03:54:49;101163.66;;;32.66;37.73
82178;BME280;71761;21.336;-157.724;2023-08-06T03:57:15;101166.41;;;32.17;38.08
82178;BME280;71761;21.336;-157.724;2023-08-06T03:59:40;101164.71;;;32.52;37.59
82178;BME280;71761;21.336;-157.724;2023-08-06T04:02:06;101165.09;;;32.45;37.87
82178;BME280;71761;21.336;-157.724;2023-08-06T04:04:31;101166.59;;;32.40;37.81
82178;BME280;71761;21.336;-157.724;2023-08-06T04:06:56;101172.55;;;31.62;38.89
82178;BME280;71761;21.336;-157.724;2023-08-06T04:09:21;101172.50;;;32.11;38.10
82178;BME280;71761;21.336;-157.724;2023-08-06T04:11:47;101171.79;;;32.57;37.47
82178;BME280;71761;21.336;-157.724;2023-08-06T04:14:12;101170.60;;;32.52;37.61
82178;BME280;71761;21.336;-157.724;2023-08-06T04:16:37;101171.01;;;32.71;37.42
82178;BME280;71761;21.336;-157.724;2023-08-06T04:19:03;101173.56;;;32.64;37.35
82178;BME280;71761;21.336;-157.724;2023-08-06T04:21:28;101174.86;;;32.02;38.07
82178;BME280;71761;21.336;-157.724;2023-08-06T04:23:55;101173.01;;;32.45;37.46
82178;BME280;71761;21.336;-157.724;2023-08-06T04:26:19;101175.39;;;32.64;37.76
82178;BME280;71761;21.336;-157.724;2023-08-06T04:28:44;101173.57;;;31.48;37.96
82178;BME280;71761;21.336;-157.724;2023-08-06T04:31:10;101178.67;;;31.96;37.72
82178;BME280;71761;21.336;-157.724;2023-08-06T04:33:36;101180.81;;;32.57;37.55
82178;BME280;71761;21.336;-157.724;2023-08-06T04:36:00;101184.57;;;32.06;37.54
82178;BME280;71761;21.336;-157.724;2023-08-06T04:38:27;101192.36;;;31.94;37.66
82178;BME280;71761;21.336;-157.724;2023-08-06T04:40:52;101197.54;;;31.70;38.51
82178;BME280;71761;21.336;-157.724;2023-08-06T04:43:17;101193.52;;;32.18;38.06
82178;BME280;71761;21.336;-157.724;2023-08-06T04:45:47;101196.47;;;31.96;37.74
82178;BME280;71761;21.336;-157.724;2023-08-06T04:48:07;101194.61;;;32.14;37.90
82178;BME280;71761;21.336;-157.724;2023-08-06T04:50:33;101199.67;;;31.76;38.14
82178;BME280;71761;21.336;-157.724;2023-08-06T04:55:24;101199.55;;;31.96;38.07
82178;BME280;71761;21.336;-157.724;2023-08-06T04:57:49;101202.44;;;32.19;37.85
82178;BME280;71761;21.336;-157.724;2023-08-06T05:00:15;101209.22;;;32.31;38.22
82178;BME280;71761;21.336;-157.724;2023-08-06T05:02:40;101214.30;;;32.13;38.24
82178;BME280;71761;21.336;-157.724;2023-08-06T05:05:06;101216.08;;;32.37;38.10
82178;BME280;71761;21.336;-157.724;2023-08-06T05:07:31;101217.20;;;31.97;37.82
82178;BME280;71761;21.336;-157.724;2023-08-06T05:09:56;101223.16;;;31.83;38.48
82178;BME280;71761;21.336;-157.724;2023-08-06T05:12:22;101224.23;;;31.76;38.47
82178;BME280;71761;21.336;-157.724;2023-08-06T05:14:47;101226.70;;;31.61;38.70
82178;BME280;71761;21.336;-157.724;2023-08-06T05:17:13;101227.32;;;31.99;38.13
82178;BME280;71761;21.336;-157.724;2023-08-06T05:19:38;101227.08;;;31.93;38.15
82178;BME280;71761;21.336;-157.724;2023-08-06T05:22:04;101235.60;;;31.68;38.63
82178;BME280;71761;21.336;-157.724;2023-08-06T05:24:29;101239.52;;;31.90;38.40
82178;BME280;71761;21.336;-157.724;2023-08-06T05:26:55;101242.86;;;31.89;38.54
82178;BME280;71761;21.336;-157.724;2023-08-06T05:29:20;101244.67;;;30.99;40.16
82178;BME280;71761;21.336;-157.724;2023-08-06T05:31:45;101248.01;;;30.93;39.85
82178;BME280;71761;21.336;-157.724;2023-08-06T05:34:11;101248.41;;;31.48;39.73
82178;BME280;71761;21.336;-157.724;2023-08-06T05:36:36;101250.41;;;31.05;39.40
82178;BME280;71761;21.336;-157.724;2023-08-06T05:39:01;101256.51;;;31.25;39.83
82178;BME280;71761;21.336;-157.724;2023-08-06T05:41:27;101256.85;;;31.28;39.04
82178;BME280;71761;21.336;-157.724;2023-08-06T05:43:52;101256.80;;;31.29;38.99
82178;BME280;71761;21.336;-157.724;2023-08-06T05:46:17;101256.23;;;31.38;38.81
82178;BME280;71761;21.336;-157.724;2023-08-06T05:48:43;101258.25;;;31.17;39.17
82178;BME280;71761;21.336;-157.724;2023-08-06T05:51:09;101260.16;;;31.06;39.24
82178;BME280;71761;21.336;-157.724;2023-08-06T05:53:34;101261.16;;;31.14;39.43
82178;BME280;71761;21.336;-157.724;2023-08-06T05:55:59;101268.13;;;31.22;39.12
82178;BME280;71761;21.336;-157.724;2023-08-06T05:58:25;101269.86;;;31.05;39.35
82178;BME280;71761;21.336;-157.724;2023-08-06T06:00:50;101275.29;;;31.08;39.68
82178;BME280;71761;21.336;-157.724;2023-08-06T06:03:16;101273.15;;;31.21;39.22
82178;BME280;71761;21.336;-157.724;2023-08-06T06:05:41;101273.20;;;31.58;39.40
82178;BME280;71761;21.336;-157.724;2023-08-06T06:08:07;101275.73;;;30.92;39.68
82178;BME280;71761;21.336;-157.724;2023-08-06T06:10:32;101284.05;;;30.42;40.76
82178;BME280;71761;21.336;-157.724;2023-08-06T06:12:58;101292.49;;;29.73;41.71
82178;BME280;71761;21.336;-157.724;2023-08-06T06:15:23;101295.52;;;30.49;41.13
82178;BME280;71761;21.336;-157.724;2023-08-06T06:17:48;101298.13;;;30.51;40.84
82178;BME280;71761;21.336;-157.724;2023-08-06T06:20:14;101292.41;;;31.10;39.93
82178;BME280;71761;21.336;-157.724;2023-08-06T06:22:39;101294.64;;;30.55;40.21
82178;BME280;71761;21.336;-157.724;2023-08-06T06:25:05;101296.26;;;31.03;39.89
82178;BME280;71761;21.336;-157.724;2023-08-06T06:27:30;101297.15;;;31.05;39.81
82178;BME280;71761;21.336;-157.724;2023-08-06T06:29:55;101299.67;;;31.30;39.48
82178;BME280;71761;21.336;-157.724;2023-08-06T06:32:21;101302.71;;;31.12;39.62
82178;BME280;71761;21.336;-157.724;2023-08-06T06:34:46;101308.00;;;31.31;39.31
82178;BME280;71761;21.336;-157.724;2023-08-06T06:37:11;101309.79;;;31.22;39.46
82178;BME280;71761;21.336;-157.724;2023-08-06T06:39:37;101315.07;;;31.02;39.90
82178;BME280;71761;21.336;-157.724;2023-08-06T06:42:02;101317.11;;;30.54;40.25
82178;BME280;71761;21.336;-157.724;2023-08-06T06:44:28;101315.68;;;30.92;39.60
82178;BME280;71761;21.336;-157.724;2023-08-06T06:46:53;101319.11;;;30.85;40.15
82178;BME280;71761;21.336;-157.724;2023-08-06T06:49:18;101324.60;;;30.11;40.84
82178;BME280;71761;21.336;-157.724;2023-08-06T06:51:44;101325.51;;;30.87;39.80
82178;BME280;71761;21.336;-157.724;2023-08-06T06:54:09;101326.38;;;31.03;39.52
82178;BME280;71761;21.336;-157.724;2023-08-06T06:56:35;101327.63;;;30.94;39.21
82178;BME280;71761;21.336;-157.724;2023-08-06T06:59:00;101331.07;;;31.04;39.10
82178;BME280;71761;21.336;-157.724;2023-08-06T07:01:26;101336.24;;;30.88;39.36
82178;BME280;71761;21.336;-157.724;2023-08-06T07:03:51;101341.56;;;31.03;39.27
82178;BME280;71761;21.336;-157.724;2023-08-06T07:06:16;101338.73;;;31.04;39.65
82178;BME280;71761;21.336;-157.724;2023-08-06T07:08:42;101341.28;;;30.19;40.87
82178;BME280;71761;21.336;-157.724;2023-08-06T07:11:07;101342.93;;;30.50;40.48
82178;BME280;71761;21.336;-157.724;2023-08-06T07:13:34;101344.28;;;30.45;40.62
82178;BME280;71761;21.336;-157.724;2023-08-06T07:15:58;101339.62;;;30.21;40.99
82178;BME280;71761;21.336;-157.724;2023-08-06T07:18:24;101337.88;;;30.91;40.06
82178;BME280;71761;21.336;-157.724;2023-08-06T07:20:50;101343.96;;;31.14;39.82
82178;BME280;71761;21.336;-157.724;2023-08-06T07:23:14;101345.71;;;31.00;40.16
82178;BME280;71761;21.336;-157.724;2023-08-06T07:25:40;101342.97;;;30.62;40.42
82178;BME280;71761;21.336;-157.724;2023-08-06T07:28:05;101344.48;;;30.76;40.81
82178;BME280;71761;21.336;-157.724;2023-08-06T07:30:31;101347.03;;;30.77;40.79
82178;BME280;71761;21.336;-157.724;2023-08-06T07:32:56;101346.61;;;30.80;40.74
82178;BME280;71761;21.336;-157.724;2023-08-06T07:35:22;101349.61;;;30.62;40.74
82178;BME280;71761;21.336;-157.724;2023-08-06T07:37:47;101349.94;;;30.76;40.90
82178;BME280;71761;21.336;-157.724;2023-08-06T07:40:13;101350.15;;;30.86;40.76
82178;BME280;71761;21.336;-157.724;2023-08-06T07:42:38;101353.20;;;30.50;41.26
82178;BME280;71761;21.336;-157.724;2023-08-06T07:45:04;101354.02;;;30.55;40.88
82178;BME280;71761;21.336;-157.724;2023-08-06T07:47:29;101356.24;;;30.40;41.41
82178;BME280;71761;21.336;-157.724;2023-08-06T07:49:54;101352.08;;;30.70;40.65
82178;BME280;71761;21.336;-157.724;2023-08-06T07:52:19;101356.49;;;30.64;40.95
82178;BME280;71761;21.336;-157.724;2023-08-06T07:54:45;101358.29;;;30.66;40.99
82178;BME280;71761;21.336;-157.724;2023-08-06T07:57:11;101356.35;;;30.06;41.50
82178;BME280;71761;21.336;-157.724;2023-08-06T07:59:35;101361.40;;;30.63;41.03
82178;BME280;71761;21.336;-157.724;2023-08-06T08:02:01;101363.06;;;30.71;40.97
82178;BME280;71761;21.336;-157.724;2023-08-06T08:04:26;101363.46;;;30.64;40.73
82178;BME280;71761;21.336;-157.724;2023-08-06T08:06:52;101369.20;;;30.70;41.02
82178;BME280;71761;21.336;-157.724;2023-08-06T08:09:17;101372.40;;;30.53;40.90
82178;BME280;71761;21.336;-157.724;2023-08-06T08:11:43;101369.22;;;30.66;41.03
82178;BME280;71761;21.336;-157.724;2023-08-06T08:14:08;101362.10;;;30.38;41.00
82178;BME280;71761;21.336;-157.724;2023-08-06T08:16:33;101361.63;;;30.82;40.73
82178;BME280;71761;21.336;-157.724;2023-08-06T08:18:59;101355.51;;;30.78;40.68
82178;BME280;71761;21.336;-157.724;2023-08-06T08:21:24;101354.90;;;30.06;41.58
82178;BME280;71761;21.336;-157.724;2023-08-06T08:23:50;101355.24;;;30.30;41.23
82178;BME280;71761;21.336;-157.724;2023-08-06T08:26:15;101351.28;;;29.56;41.75
82178;BME280;71761;21.336;-157.724;2023-08-06T08:28:41;101351.50;;;30.03;41.51
82178;BME280;71761;21.336;-157.724;2023-08-06T08:31:09;101352.71;;;29.88;42.09
82178;BME280;71761;21.336;-157.724;2023-08-06T08:33:31;101352.69;;;30.23;41.62
82178;BME280;71761;21.336;-157.724;2023-08-06T08:38:23;101350.73;;;30.53;41.34
82178;BME280;71761;21.336;-157.724;2023-08-06T08:40:51;101352.88;;;30.37;41.65
82178;BME280;71761;21.336;-157.724;2023-08-06T08:43:16;101352.10;;;30.46;41.54
82178;BME280;71761;21.336;-157.724;2023-08-06T08:45:41;101354.20;;;30.43;41.59
82178;BME280;71761;21.336;-157.724;2023-08-06T08:48:04;101354.97;;;30.20;41.91
82178;BME280;71761;21.336;-157.724;2023-08-06T08:50:29;101356.10;;;30.02;42.22
82178;BME280;71761;21.336;-157.724;2023-08-06T08:52:55;101354.21;;;30.35;42.04
82178;BME280;71761;21.336;-157.724;2023-08-06T08:55:21;101348.69;;;30.10;42.10
82178;BME280;71761;21.336;-157.724;2023-08-06T08:57:45;101346.81;;;29.78;42.59
82178;BME280;71761;21.336;-157.724;2023-08-06T09:00:13;101348.18;;;29.66;42.73
82178;BME280;71761;21.336;-157.724;2023-08-06T09:02:38;101341.90;;;30.00;42.57
82178;BME280;71761;21.336;-157.724;2023-08-06T09:05:02;101341.57;;;29.86;42.93
82178;BME280;71761;21.336;-157.724;2023-08-06T09:07:27;101340.14;;;30.20;42.71
82178;BME280;71761;21.336;-157.724;2023-08-06T09:09:53;101341.16;;;29.86;42.67
82178;BME280;71761;21.336;-157.724;2023-08-06T09:12:18;101345.72;;;30.14;42.93
82178;BME280;71761;21.336;-157.724;2023-08-06T09:14:44;101346.31;;;29.79;43.32
82178;BME280;71761;21.336;-157.724;2023-08-06T09:17:09;101342.79;;;29.92;42.71
82178;BME280;71761;21.336;-157.724;2023-08-06T09:19:34;101346.87;;;29.79;43.08
82178;BME280;71761;21.336;-157.724;2023-08-06T09:22:00;101351.64;;;29.76;43.30
82178;BME280;71761;21.336;-157.724;2023-08-06T09:24:25;101353.26;;;29.39;43.63
82178;BME280;71761;21.336;-157.724;2023-08-06T09:26:51;101353.05;;;29.58;43.35
82178;BME280;71761;21.336;-157.724;2023-08-06T09:29:23;101352.18;;;29.58;42.67
82178;BME280;71761;21.336;-157.724;2023-08-06T09:31:43;101345.68;;;29.73;42.29
82178;BME280;71761;21.336;-157.724;2023-08-06T09:34:11;101345.74;;;29.80;42.41
82178;BME280;71761;21.336;-157.724;2023-08-06T09:36:32;101346.02;;;29.66;42.54
82178;BME280;71761;21.336;-157.724;2023-08-06T09:38:58;101343.00;;;29.97;42.44
82178;BME280;71761;21.336;-157.724;2023-08-06T09:41:27;101339.22;;;29.65;42.56
82178;BME280;71761;21.336;-157.724;2023-08-06T09:43:48;101332.60;;;29.96;42.44
82178;BME280;71761;21.336;-157.724;2023-08-06T09:46:14;101327.20;;;29.86;42.03
82178;BME280;71761;21.336;-157.724;2023-08-06T09:48:39;101321.01;;;30.16;41.90
82178;BME280;71761;21.336;-157.724;2023-08-06T09:51:05;101316.91;;;29.97;42.17
82178;BME280;71761;21.336;-157.724;2023-08-06T09:53:30;101312.46;;;29.23;43.01
82178;BME280;71761;21.336;-157.724;2023-08-06T09:55:55;101311.49;;;28.37;46.39
82178;BME280;71761;21.336;-157.724;2023-08-06T09:58:22;101320.81;;;27.51;49.07
82178;BME280;71761;21.336;-157.724;2023-08-06T10:00:46;101327.69;;;28.79;46.57
82178;BME280;71761;21.336;-157.724;2023-08-06T10:03:11;101321.89;;;28.51;46.33
82178;BME280;71761;21.336;-157.724;2023-08-06T10:05:37;101320.24;;;28.93;46.39
82178;BME280;71761;21.336;-157.724;2023-08-06T10:08:03;101316.70;;;28.85;46.57
82178;BME280;71761;21.336;-157.724;2023-08-06T10:10:28;101316.42;;;28.65;45.86
82178;BME280;71761;21.336;-157.724;2023-08-06T10:12:55;101315.99;;;29.26;45.28
82178;BME280;71761;21.336;-157.724;2023-08-06T10:15:21;101318.50;;;29.16;45.10
82178;BME280;71761;21.336;-157.724;2023-08-06T10:17:45;101318.73;;;29.34;45.30
82178;BME280;71761;21.336;-157.724;2023-08-06T10:20:11;101317.22;;;29.25;45.36
82178;BME280;71761;21.336;-157.724;2023-08-06T10:22:34;101317.35;;;29.25;45.20
82178;BME280;71761;21.336;-157.724;2023-08-06T10:25:00;101309.65;;;29.64;44.42
82178;BME280;71761;21.336;-157.724;2023-08-06T10:27:29;101312.72;;;29.48;44.47
82178;BME280;71761;21.336;-157.724;2023-08-06T10:29:50;101308.89;;;29.13;44.94
82178;BME280;71761;21.336;-157.724;2023-08-06T10:32:15;101306.76;;;29.54;44.20
82178;BME280;71761;21.336;-157.724;2023-08-06T10:34:54;101302.89;;;29.44;43.96
82178;BME280;71761;21.336;-157.724;2023-08-06T10:37:06;101303.64;;;29.53;44.05
82178;BME280;71761;21.336;-157.724;2023-08-06T10:39:32;101306.94;;;28.88;44.06
82178;BME280;71761;21.336;-157.724;2023-08-06T10:41:57;101302.39;;;29.20;44.18
82178;BME280;71761;21.336;-157.724;2023-08-06T10:44:23;101303.80;;;29.39;43.79
82178;BME280;71761;21.336;-157.724;2023-08-06T10:46:47;101302.66;;;29.02;43.77
82178;BME280;71761;21.336;-157.724;2023-08-06T10:49:13;101300.09;;;29.22;43.86
82178;BME280;71761;21.336;-157.724;2023-08-06T10:51:38;101298.25;;;29.74;43.00
82178;BME280;71761;21.336;-157.724;2023-08-06T10:54:04;101294.01;;;30.05;42.48
82178;BME280;71761;21.336;-157.724;2023-08-06T10:56:29;101293.82;;;29.99;42.50
82178;BME280;71761;21.336;-157.724;2023-08-06T10:58:56;101291.44;;;29.74;42.42
82178;BME280;71761;21.336;-157.724;2023-08-06T11:01:20;101288.55;;;29.89;42.20
82178;BME280;71761;21.336;-157.724;2023-08-06T11:03:46;101285.68;;;29.71;42.08
82178;BME280;71761;21.336;-157.724;2023-08-06T11:06:16;101287.27;;;29.68;42.01
82178;BME280;71761;21.336;-157.724;2023-08-06T11:08:37;101282.45;;;29.89;41.97
82178;BME280;71761;21.336;-157.724;2023-08-06T11:11:09;101282.46;;;30.17;41.87
82178;BME280;71761;21.336;-157.724;2023-08-06T11:13:27;101282.45;;;29.60;41.96
82178;BME280;71761;21.336;-157.724;2023-08-06T11:15:53;101276.61;;;30.09;41.88
82178;BME280;71761;21.336;-157.724;2023-08-06T11:18:18;101270.70;;;29.91;41.84
82178;BME280;71761;21.336;-157.724;2023-08-06T11:20:43;101268.75;;;29.69;41.85
82178;BME280;71761;21.336;-157.724;2023-08-06T11:23:11;101271.34;;;29.89;42.19
82178;BME280;71761;21.336;-157.724;2023-08-06T11:25:38;101268.78;;;29.68;42.51
82178;BME280;71761;21.336;-157.724;2023-08-06T11:28:02;101265.48;;;29.52;41.98
82178;BME280;71761;21.336;-157.724;2023-08-06T11:30:26;101263.65;;;29.43;42.49
82178;BME280;71761;21.336;-157.724;2023-08-06T11:32:51;101265.07;;;29.85;42.27
82178;BME280;71761;21.336;-157.724;2023-08-06T11:35:17;101262.43;;;29.67;42.55
82178;BME280;71761;21.336;-157.724;2023-08-06T11:37:44;101261.09;;;29.54;42.45
82178;BME280;71761;21.336;-157.724;2023-08-06T11:40:09;101258.93;;;29.09;43.05
82178;BME280;71761;21.336;-157.724;2023-08-06T11:42:32;101253.94;;;29.67;42.53
82178;BME280;71761;21.336;-157.724;2023-08-06T11:44:58;101254.55;;;30.00;42.02
82178;BME280;71761;21.336;-157.724;2023-08-06T11:47:23;101255.00;;;29.58;42.31
82178;BME280;71761;21.336;-157.724;2023-08-06T11:49:49;101254.47;;;29.71;42.03
82178;BME280;71761;21.336;-157.724;2023-08-06T11:52:17;101253.11;;;29.32;42.73
82178;BME280;71761;21.336;-157.724;2023-08-06T11:54:39;101254.41;;;29.60;42.26
82178;BME280;71761;21.336;-157.724;2023-08-06T11:57:06;101255.25;;;29.57;42.69
82178;BME280;71761;21.336;-157.724;2023-08-06T11:59:30;101257.09;;;29.81;42.41
82178;BME280;71761;21.336;-157.724;2023-08-06T12:01:56;101253.14;;;29.89;41.96
82178;BME280;71761;21.336;-157.724;2023-08-06T12:04:21;101249.19;;;30.13;41.99
82178;BME280;71761;21.336;-157.724;2023-08-06T12:06:46;101247.31;;;30.27;41.71
82178;BME280;71761;21.336;-157.724;2023-08-06T12:09:12;101245.36;;;30.08;42.08
82178;BME280;71761;21.336;-157.724;2023-08-06T12:11:37;101239.55;;;30.08;42.06
82178;BME280;71761;21.336;-157.724;2023-08-06T12:14:03;101237.42;;;29.57;42.30
82178;BME280;71761;21.336;-157.724;2023-08-06T12:16:29;101238.88;;;29.52;42.22
82178;BME280;71761;21.336;-157.724;2023-08-06T12:18:53;101241.19;;;29.89;42.60
82178;BME280;71761;21.336;-157.724;2023-08-06T12:21:19;101246.57;;;29.61;42.85
82178;BME280;71761;21.336;-157.724;2023-08-06T12:23:44;101245.96;;;30.06;42.98